Airport ID:K0A0
Update Time (UTC):16/04/2021 08:10
Wind Speed (Knots):6
Wind Direction (Magnetic):20
Temperature (°C):11.4
Dew Point (°C):-16
Humidity (%):13.7
Altimeter (inHg):29.9
Density Altitude (Feet):
Visibility:\\\\
Clouds (Hundreds of feet):CLR
Present Weather:
METAR:METAR K0A0 160805Z AUTO 04005KT CLR 12/M16 A2990 RMK AO2

The data displayed is for advisory purposes only and is not to be used for flight planning or operations.